sensor_id;sensor_type;location;lat;lon;timestamp;temperature;humidity
52965;DHT22;42923;53.220;6.528;2024-02-26T00:01:01;3.90;99.90
52965;DHT22;42923;53.220;6.528;2024-02-26T00:03:27;3.90;99.90
52965;DHT22;42923;53.220;6.528;2024-02-26T00:05:53;3.90;99.90
52965;DHT22;42923;53.220;6.528;2024-02-26T00:08:19;3.80;99.90
52965;DHT22;42923;53.220;6.528;2024-02-26T00:10:44;3.90;99.90
52965;DHT22;42923;53.220;6.528;2024-02-26T00:13:10;4.00;99.90
52965;DHT22;42923;53.220;6.528;2024-02-26T00:15:36;3.90;99.90
52965;DHT22;42923;53.220;6.528;2024-02-26T00:18:01;3.90;99.90
52965;DHT22;42923;53.220;6.528;2024-02-26T00:20:27;3.90;99.90
52965;DHT22;42923;53.220;6.528;2024-02-26T00:22:53;3.90;99.90
52965;DHT22;42923;53.220;6.528;2024-02-26T00:25:18;3.90;99.90
52965;DHT22;42923;53.220;6.528;2024-02-26T00:27:44;3.90;99.90
52965;DHT22;42923;53.220;6.528;2024-02-26T00:30:10;3.90;99.90
52965;DHT22;42923;53.220;6.528;2024-02-26T00:32:36;3.90;99.90
52965;DHT22;42923;53.220;6.528;2024-02-26T00:35:02;3.90;99.90
52965;DHT22;42923;53.220;6.528;2024-02-26T00:37:27;3.90;99.90
52965;DHT22;42923;53.220;6.528;2024-02-26T00:39:53;3.90;99.90
52965;DHT22;42923;53.220;6.528;2024-02-26T00:42:19;3.80;99.90
52965;DHT22;42923;53.220;6.528;2024-02-26T00:44:45;3.90;99.90
52965;DHT22;42923;53.220;6.528;2024-02-26T00:47:11;3.80;99.90
52965;DHT22;42923;53.220;6.528;2024-02-26T00:49:37;3.90;99.90
52965;DHT22;42923;53.220;6.528;2024-02-26T00:52:03;3.90;99.90
52965;DHT22;42923;53.220;6.528;2024-02-26T00:54:28;4.00;99.90
52965;DHT22;42923;53.220;6.528;2024-02-26T00:56:54;3.90;99.90
52965;DHT22;42923;53.220;6.528;2024-02-26T00:59:20;3.90;99.90
52965;DHT22;42923;53.220;6.528;2024-02-26T01:01:46;3.90;99.90
52965;DHT22;42923;53.220;6.528;2024-02-26T01:04:11;3.90;99.90
52965;DHT22;42923;53.220;6.528;2024-02-26T01:06:37;3.90;99.90
52965;DHT22;42923;53.220;6.528;2024-02-26T01:09:03;3.90;99.90
52965;DHT22;42923;53.220;6.528;2024-02-26T01:11:29;4.80;99.90
52965;DHT22;42923;53.220;6.528;2024-02-26T01:13:55;3.90;99.90
52965;DHT22;42923;53.220;6.528;2024-02-26T01:16:23;3.90;99.90
52965;DHT22;42923;53.220;6.528;2024-02-26T01:18:48;3.90;99.90
52965;DHT22;42923;53.220;6.528;2024-02-26T01:21:14;3.90;99.90
52965;DHT22;42923;53.220;6.528;2024-02-26T01:23:40;3.90;99.90
52965;DHT22;42923;53.220;6.528;2024-02-26T01:26:06;4.00;99.90
52965;DHT22;42923;53.220;6.528;2024-02-26T01:28:31;4.00;99.90
52965;DHT22;42923;53.220;6.528;2024-02-26T01:30:57;3.90;99.90
52965;DHT22;42923;53.220;6.528;2024-02-26T01:33:25;3.90;99.90
52965;DHT22;42923;53.220;6.528;2024-02-26T01:35:51;3.90;99.90
52965;DHT22;42923;53.220;6.528;2024-02-26T01:38:18;3.90;99.90
52965;DHT22;42923;53.220;6.528;2024-02-26T01:40:44;3.90;99.90
52965;DHT22;42923;53.220;6.528;2024-02-26T01:43:09;4.40;99.90
52965;DHT22;42923;53.220;6.528;2024-02-26T01:45:35;4.30;99.90
52965;DHT22;42923;53.220;6.528;2024-02-26T01:48:01;5.30;99.90
52965;DHT22;42923;53.220;6.528;2024-02-26T01:50:27;3.80;99.90
52965;DHT22;42923;53.220;6.528;2024-02-26T01:52:54;3.80;99.90
52965;DHT22;42923;53.220;6.528;2024-02-26T01:55:22;3.80;99.90
52965;DHT22;42923;53.220;6.528;2024-02-26T01:57:49;4.80;99.90
52965;DHT22;42923;53.220;6.528;2024-02-26T02:00:18;3.90;99.90
52965;DHT22;42923;53.220;6.528;2024-02-26T02:02:45;3.90;99.90
52965;DHT22;42923;53.220;6.528;2024-02-26T02:05:15;4.60;99.90
52965;DHT22;42923;53.220;6.528;2024-02-26T02:07:43;3.90;99.90
52965;DHT22;42923;53.220;6.528;2024-02-26T02:10:09;3.90;99.90
52965;DHT22;42923;53.220;6.528;2024-02-26T02:12:35;4.80;99.90
52965;DHT22;42923;53.220;6.528;2024-02-26T02:15:04;3.90;99.90
52965;DHT22;42923;53.220;6.528;2024-02-26T02:17:30;3.80;99.90
52965;DHT22;42923;53.220;6.528;2024-02-26T02:19:56;3.80;99.90
52965;DHT22;42923;53.220;6.528;2024-02-26T02:22:22;3.80;99.90
52965;DHT22;42923;53.220;6.528;2024-02-26T02:24:49;3.80;99.90
52965;DHT22;42923;53.220;6.528;2024-02-26T02:27:15;3.70;99.90
52965;DHT22;42923;53.220;6.528;2024-02-26T02:29:41;3.70;99.90
52965;DHT22;42923;53.220;6.528;2024-02-26T02:32:08;3.70;99.90
52965;DHT22;42923;53.220;6.528;2024-02-26T02:34:34;3.60;99.90
52965;DHT22;42923;53.220;6.528;2024-02-26T02:37:00;3.70;99.90
52965;DHT22;42923;53.220;6.528;2024-02-26T02:39:25;3.70;99.90
52965;DHT22;42923;53.220;6.528;2024-02-26T02:41:51;3.70;99.90
52965;DHT22;42923;53.220;6.528;2024-02-26T02:44:17;3.70;99.90
52965;DHT22;42923;53.220;6.528;2024-02-26T02:46:43;3.60;99.90
52965;DHT22;42923;53.220;6.528;2024-02-26T02:49:09;3.60;99.90
52965;DHT22;42923;53.220;6.528;2024-02-26T02:51:36;3.70;99.90
52965;DHT22;42923;53.220;6.528;2024-02-26T02:54:02;3.60;99.90
52965;DHT22;42923;53.220;6.528;2024-02-26T02:56:28;3.70;99.90
52965;DHT22;42923;53.220;6.528;2024-02-26T02:58:53;3.60;99.90
52965;DHT22;42923;53.220;6.528;2024-02-26T03:01:19;3.70;99.90
52965;DHT22;42923;53.220;6.528;2024-02-26T03:03:45;3.60;99.90
52965;DHT22;42923;53.220;6.528;2024-02-26T03:06:10;3.60;99.90
52965;DHT22;42923;53.220;6.528;2024-02-26T03:08:36;3.60;99.90
52965;DHT22;42923;53.220;6.528;2024-02-26T03:11:07;3.50;99.90
52965;DHT22;42923;53.220;6.528;2024-02-26T03:13:32;3.60;99.90
52965;DHT22;42923;53.220;6.528;2024-02-26T03:16:03;3.60;99.90
52965;DHT22;42923;53.220;6.528;2024-02-26T03:18:29;5.10;99.90
52965;DHT22;42923;53.220;6.528;2024-02-26T03:20:55;3.60;99.90
52965;DHT22;42923;53.220;6.528;2024-02-26T03:23:21;3.60;99.90
52965;DHT22;42923;53.220;6.528;2024-02-26T03:25:47;3.60;99.90
52965;DHT22;42923;53.220;6.528;2024-02-26T03:28:13;3.60;99.90
52965;DHT22;42923;53.220;6.528;2024-02-26T03:30:39;3.60;99.90
52965;DHT22;42923;53.220;6.528;2024-02-26T03:33:05;3.70;99.90
52965;DHT22;42923;53.220;6.528;2024-02-26T03:35:30;3.70;99.90
52965;DHT22;42923;53.220;6.528;2024-02-26T03:37:56;3.70;99.90
52965;DHT22;42923;53.220;6.528;2024-02-26T03:40:22;3.60;99.90
52965;DHT22;42923;53.220;6.528;2024-02-26T03:42:47;4.60;99.90
52965;DHT22;42923;53.220;6.528;2024-02-26T03:45:13;3.70;99.90
52965;DHT22;42923;53.220;6.528;2024-02-26T03:47:39;3.70;99.90
52965;DHT22;42923;53.220;6.528;2024-02-26T03:50:07;3.70;99.90
52965;DHT22;42923;53.220;6.528;2024-02-26T03:52:33;3.70;99.90
52965;DHT22;42923;53.220;6.528;2024-02-26T03:54:59;3.10;99.90
52965;DHT22;42923;53.220;6.528;2024-02-26T03:57:25;5.30;99.90
52965;DHT22;42923;53.220;6.528;2024-02-26T03:59:51;3.60;99.90
52965;DHT22;42923;53.220;6.528;2024-02-26T04:02:16;3.70;99.90
52965;DHT22;42923;53.220;6.528;2024-02-26T04:04:45;3.60;99.90
52965;DHT22;42923;53.220;6.528;2024-02-26T04:07:11;3.10;99.90
52965;DHT22;42923;53.220;6.528;2024-02-26T04:09:37;3.70;99.90
52965;DHT22;42923;53.220;6.528;2024-02-26T04:12:03;3.70;99.90
52965;DHT22;42923;53.220;6.528;2024-02-26T04:14:28;3.70;99.90
52965;DHT22;42923;53.220;6.528;2024-02-26T04:16:54;3.70;99.90
52965;DHT22;42923;53.220;6.528;2024-02-26T04:19:20;3.70;99.90
52965;DHT22;42923;53.220;6.528;2024-02-26T04:21:46;3.70;99.90
52965;DHT22;42923;53.220;6.528;2024-02-26T04:24:12;5.30;99.90
52965;DHT22;42923;53.220;6.528;2024-02-26T04:26:37;3.70;99.90
52965;DHT22;42923;53.220;6.528;2024-02-26T04:29:03;3.40;99.90
52965;DHT22;42923;53.220;6.528;2024-02-26T04:31:29;3.80;99.90
52965;DHT22;42923;53.220;6.528;2024-02-26T04:33:55;3.80;99.90
52965;DHT22;42923;53.220;6.528;2024-02-26T04:36:21;3.80;99.90
52965;DHT22;42923;53.220;6.528;2024-02-26T04:38:47;3.80;99.90
52965;DHT22;42923;53.220;6.528;2024-02-26T04:41:13;4.90;99.90
52965;DHT22;42923;53.220;6.528;2024-02-26T04:43:39;5.80;99.90
52965;DHT22;42923;53.220;6.528;2024-02-26T04:46:09;3.80;99.90
52965;DHT22;42923;53.220;6.528;2024-02-26T04:48:36;3.90;99.90
52965;DHT22;42923;53.220;6.528;2024-02-26T04:51:02;3.90;99.90
52965;DHT22;42923;53.220;6.528;2024-02-26T04:53:28;3.90;99.90
52965;DHT22;42923;53.220;6.528;2024-02-26T04:55:53;3.80;99.90
52965;DHT22;42923;53.220;6.528;2024-02-26T04:58:19;3.90;99.90
52965;DHT22;42923;53.220;6.528;2024-02-26T05:00:45;3.30;99.90
52965;DHT22;42923;53.220;6.528;2024-02-26T05:03:10;3.90;99.90
52965;DHT22;42923;53.220;6.528;2024-02-26T05:05:44;3.90;99.90
52965;DHT22;42923;53.220;6.528;2024-02-26T05:08:11;3.90;99.90
52965;DHT22;42923;53.220;6.528;2024-02-26T05:10:37;3.90;99.90
52965;DHT22;42923;53.220;6.528;2024-02-26T05:13:08;3.90;99.90
52965;DHT22;42923;53.220;6.528;2024-02-26T05:15:35;3.90;99.90
52965;DHT22;42923;53.220;6.528;2024-02-26T05:18:01;5.20;99.90
52965;DHT22;42923;53.220;6.528;2024-02-26T05:20:27;4.00;99.90
52965;DHT22;42923;53.220;6.528;2024-02-26T05:22:52;3.90;99.90
52965;DHT22;42923;53.220;6.528;2024-02-26T05:25:18;3.90;99.90
52965;DHT22;42923;53.220;6.528;2024-02-26T05:27:44;4.00;99.90
52965;DHT22;42923;53.220;6.528;2024-02-26T05:30:10;4.00;99.90
52965;DHT22;42923;53.220;6.528;2024-02-26T05:32:37;4.00;99.90
52965;DHT22;42923;53.220;6.528;2024-02-26T05:35:03;4.00;99.90
52965;DHT22;42923;53.220;6.528;2024-02-26T05:37:29;4.00;99.90
52965;DHT22;42923;53.220;6.528;2024-02-26T05:39:55;4.10;99.90
52965;DHT22;42923;53.220;6.528;2024-02-26T05:42:21;4.00;99.90
52965;DHT22;42923;53.220;6.528;2024-02-26T05:44:46;4.00;99.90
52965;DHT22;42923;53.220;6.528;2024-02-26T05:47:12;4.00;99.90
52965;DHT22;42923;53.220;6.528;2024-02-26T05:49:39;4.10;99.90
52965;DHT22;42923;53.220;6.528;2024-02-26T05:52:05;4.00;99.90
52965;DHT22;42923;53.220;6.528;2024-02-26T05:54:31;4.00;99.90
52965;DHT22;42923;53.220;6.528;2024-02-26T05:56:57;4.00;99.90
52965;DHT22;42923;53.220;6.528;2024-02-26T05:59:23;4.00;99.90
52965;DHT22;42923;53.220;6.528;2024-02-26T06:01:49;4.00;99.90
52965;DHT22;42923;53.220;6.528;2024-02-26T06:04:15;4.10;99.90
52965;DHT22;42923;53.220;6.528;2024-02-26T06:06:42;4.00;99.90
52965;DHT22;42923;53.220;6.528;2024-02-26T06:09:08;6.10;99.90
52965;DHT22;42923;53.220;6.528;2024-02-26T06:11:33;5.30;99.90
52965;DHT22;42923;53.220;6.528;2024-02-26T06:13:59;4.10;99.90
52965;DHT22;42923;53.220;6.528;2024-02-26T06:16:25;4.10;99.90
52965;DHT22;42923;53.220;6.528;2024-02-26T06:18:50;4.10;99.90
52965;DHT22;42923;53.220;6.528;2024-02-26T06:21:16;4.10;99.90
52965;DHT22;42923;53.220;6.528;2024-02-26T06:23:42;4.10;99.90
52965;DHT22;42923;53.220;6.528;2024-02-26T06:26:07;4.20;99.90
52965;DHT22;42923;53.220;6.528;2024-02-26T06:28:33;4.20;99.90
52965;DHT22;42923;53.220;6.528;2024-02-26T06:31:01;4.20;99.90
52965;DHT22;42923;53.220;6.528;2024-02-26T06:33:27;4.30;99.90
52965;DHT22;42923;53.220;6.528;2024-02-26T06:35:52;4.30;99.90
52965;DHT22;42923;53.220;6.528;2024-02-26T06:38:18;4.20;99.90
52965;DHT22;42923;53.220;6.528;2024-02-26T06:40:46;4.20;99.90
52965;DHT22;42923;53.220;6.528;2024-02-26T06:43:12;4.20;99.90
52965;DHT22;42923;53.220;6.528;2024-02-26T06:45:37;4.20;99.90
52965;DHT22;42923;53.220;6.528;2024-02-26T06:48:03;4.20;99.90
52965;DHT22;42923;53.220;6.528;2024-02-26T06:50:29;4.30;99.90
52965;DHT22;42923;53.220;6.528;2024-02-26T06:52:54;4.30;99.90
52965;DHT22;42923;53.220;6.528;2024-02-26T06:55:20;5.20;99.90
52965;DHT22;42923;53.220;6.528;2024-02-26T06:57:46;4.30;99.90
52965;DHT22;42923;53.220;6.528;2024-02-26T07:00:12;4.30;99.90
52965;DHT22;42923;53.220;6.528;2024-02-26T07:02:40;4.30;99.90
52965;DHT22;42923;53.220;6.528;2024-02-26T07:05:06;4.30;99.90
52965;DHT22;42923;53.220;6.528;2024-02-26T07:07:32;4.30;99.90
52965;DHT22;42923;53.220;6.528;2024-02-26T07:09:58;4.40;99.90
52965;DHT22;42923;53.220;6.528;2024-02-26T07:12:23;4.40;99.90
52965;DHT22;42923;53.220;6.528;2024-02-26T07:14:49;5.00;99.90
52965;DHT22;42923;53.220;6.528;2024-02-26T07:17:16;4.40;99.90
52965;DHT22;42923;53.220;6.528;2024-02-26T07:19:42;4.40;99.90
52965;DHT22;42923;53.220;6.528;2024-02-26T07:22:08;4.40;99.90
52965;DHT22;42923;53.220;6.528;2024-02-26T07:24:34;4.40;99.90
52965;DHT22;42923;53.220;6.528;2024-02-26T07:27:00;4.40;99.90
52965;DHT22;42923;53.220;6.528;2024-02-26T07:29:25;4.50;99.90
52965;DHT22;42923;53.220;6.528;2024-02-26T07:31:51;4.80;99.90
52965;DHT22;42923;53.220;6.528;2024-02-26T07:34:17;4.50;99.90
52965;DHT22;42923;53.220;6.528;2024-02-26T07:36:42;4.50;99.90
52965;DHT22;42923;53.220;6.528;2024-02-26T07:39:08;4.50;99.90
52965;DHT22;42923;53.220;6.528;2024-02-26T07:41:34;4.60;99.90
52965;DHT22;42923;53.220;6.528;2024-02-26T07:43:59;4.50;99.90
52965;DHT22;42923;53.220;6.528;2024-02-26T07:46:25;4.60;99.90
52965;DHT22;42923;53.220;6.528;2024-02-26T07:48:51;4.60;99.90
52965;DHT22;42923;53.220;6.528;2024-02-26T07:51:16;4.70;99.90
52965;DHT22;42923;53.220;6.528;2024-02-26T07:53:45;4.60;99.90
52965;DHT22;42923;53.220;6.528;2024-02-26T07:56:10;4.70;99.90
52965;DHT22;42923;53.220;6.528;2024-02-26T07:58:36;4.80;99.90
52965;DHT22;42923;53.220;6.528;2024-02-26T08:01:02;4.70;99.90
52965;DHT22;42923;53.220;6.528;2024-02-26T08:03:27;4.80;99.90
52965;DHT22;42923;53.220;6.528;2024-02-26T08:05:54;4.80;99.90
52965;DHT22;42923;53.220;6.528;2024-02-26T08:08:20;4.80;99.90
52965;DHT22;42923;53.220;6.528;2024-02-26T08:10:45;4.90;99.90
52965;DHT22;42923;53.220;6.528;2024-02-26T08:13:11;4.90;99.90
52965;DHT22;42923;53.220;6.528;2024-02-26T08:15:37;4.90;99.90
52965;DHT22;42923;53.220;6.528;2024-02-26T08:18:03;5.00;99.90
52965;DHT22;42923;53.220;6.528;2024-02-26T08:20:29;5.00;99.90
52965;DHT22;42923;53.220;6.528;2024-02-26T08:22:56;5.00;99.90
52965;DHT22;42923;53.220;6.528;2024-02-26T08:25:22;5.00;99.90
52965;DHT22;42923;53.220;6.528;2024-02-26T08:27:48;6.90;99.90
52965;DHT22;42923;53.220;6.528;2024-02-26T08:30:15;5.00;99.90
52965;DHT22;42923;53.220;6.528;2024-02-26T08:32:48;5.10;99.90
52965;DHT22;42923;53.220;6.528;2024-02-26T08:35:14;5.10;99.90
52965;DHT22;42923;53.220;6.528;2024-02-26T08:37:40;5.10;99.90
52965;DHT22;42923;53.220;6.528;2024-02-26T08:40:06;6.50;99.90
52965;DHT22;42923;53.220;6.528;2024-02-26T08:42:32;5.20;99.90
52965;DHT22;42923;53.220;6.528;2024-02-26T08:44:58;5.20;99.90
52965;DHT22;42923;53.220;6.528;2024-02-26T08:47:27;5.30;99.90
52965;DHT22;42923;53.220;6.528;2024-02-26T08:49:53;5.30;99.90
52965;DHT22;42923;53.220;6.528;2024-02-26T08:52:19;6.10;99.90
52965;DHT22;42923;53.220;6.528;2024-02-26T08:54:45;5.30;99.90
52965;DHT22;42923;53.220;6.528;2024-02-26T08:57:11;6.90;99.90
52965;DHT22;42923;53.220;6.528;2024-02-26T08:59:36;7.10;99.90
52965;DHT22;42923;53.220;6.528;2024-02-26T09:02:02;6.80;99.90
52965;DHT22;42923;53.220;6.528;2024-02-26T09:04:28;5.50;99.90
52965;DHT22;42923;53.220;6.528;2024-02-26T09:06:54;5.50;99.90
52965;DHT22;42923;53.220;6.528;2024-02-26T09:09:20;5.50;99.90
52965;DHT22;42923;53.220;6.528;2024-02-26T09:11:48;5.60;99.90
52965;DHT22;42923;53.220;6.528;2024-02-26T09:14:14;5.60;99.90
52965;DHT22;42923;53.220;6.528;2024-02-26T09:16:39;5.60;99.90
52965;DHT22;42923;53.220;6.528;2024-02-26T09:19:05;6.20;99.90
52965;DHT22;42923;53.220;6.528;2024-02-26T09:21:31;5.70;99.90
52965;DHT22;42923;53.220;6.528;2024-02-26T09:23:56;5.70;99.90
52965;DHT22;42923;53.220;6.528;2024-02-26T09:26:22;5.70;99.90
52965;DHT22;42923;53.220;6.528;2024-02-26T09:28:48;5.70;99.90
52965;DHT22;42923;53.220;6.528;2024-02-26T09:31:15;5.70;99.90
52965;DHT22;42923;53.220;6.528;2024-02-26T09:33:42;5.60;99.90
52965;DHT22;42923;53.220;6.528;2024-02-26T09:36:08;5.80;99.90
52965;DHT22;42923;53.220;6.528;2024-02-26T09:38:35;5.90;99.90
52965;DHT22;42923;53.220;6.528;2024-02-26T09:41:04;6.00;99.90
52965;DHT22;42923;53.220;6.528;2024-02-26T09:43:35;6.00;99.90
52965;DHT22;42923;53.220;6.528;2024-02-26T09:46:05;6.00;99.90
52965;DHT22;42923;53.220;6.528;2024-02-26T09:48:32;6.00;99.90
52965;DHT22;42923;53.220;6.528;2024-02-26T09:51:01;6.10;99.90
52965;DHT22;42923;53.220;6.528;2024-02-26T09:53:29;6.20;99.90
52965;DHT22;42923;53.220;6.528;2024-02-26T09:56:00;6.20;99.90
52965;DHT22;42923;53.220;6.528;2024-02-26T09:58:29;6.20;99.90
52965;DHT22;42923;53.220;6.528;2024-02-26T10:01:00;6.30;99.90
52965;DHT22;42923;53.220;6.528;2024-02-26T10:03:36;6.30;99.90
52965;DHT22;42923;53.220;6.528;2024-02-26T10:06:04;6.30;99.90
52965;DHT22;42923;53.220;6.528;2024-02-26T10:08:31;6.40;99.90
52965;DHT22;42923;53.220;6.528;2024-02-26T10:10:57;6.40;99.90
52965;DHT22;42923;53.220;6.528;2024-02-26T10:13:23;6.40;99.90
52965;DHT22;42923;53.220;6.528;2024-02-26T10:15:49;6.90;99.90
52965;DHT22;42923;53.220;6.528;2024-02-26T10:18:15;6.50;99.90
52965;DHT22;42923;53.220;6.528;2024-02-26T10:20:40;6.50;99.90
52965;DHT22;42923;53.220;6.528;2024-02-26T10:23:06;6.50;99.90
52965;DHT22;42923;53.220;6.528;2024-02-26T10:25:32;6.50;99.90
52965;DHT22;42923;53.220;6.528;2024-02-26T10:28:01;6.40;99.90
52965;DHT22;42923;53.220;6.528;2024-02-26T10:30:28;6.50;99.90
52965;DHT22;42923;53.220;6.528;2024-02-26T10:32:54;6.80;99.90
52965;DHT22;42923;53.220;6.528;2024-02-26T10:35:20;6.50;99.90
52965;DHT22;42923;53.220;6.528;2024-02-26T10:37:46;6.40;99.90
52965;DHT22;42923;53.220;6.528;2024-02-26T10:40:13;6.10;99.90
52965;DHT22;42923;53.220;6.528;2024-02-26T10:42:40;7.40;99.90
52965;DHT22;42923;53.220;6.528;2024-02-26T10:45:07;7.20;99.90
52965;DHT22;42923;53.220;6.528;2024-02-26T10:47:34;6.40;99.90
52965;DHT22;42923;53.220;6.528;2024-02-26T10:50:05;6.40;99.90
52965;DHT22;42923;53.220;6.528;2024-02-26T10:52:33;6.50;99.90
52965;DHT22;42923;53.220;6.528;2024-02-26T10:55:03;6.60;99.90
52965;DHT22;42923;53.220;6.528;2024-02-26T10:57:33;6.70;99.90
52965;DHT22;42923;53.220;6.528;2024-02-26T11:00:01;6.70;99.90
52965;DHT22;42923;53.220;6.528;2024-02-26T11:02:31;6.70;99.90
52965;DHT22;42923;53.220;6.528;2024-02-26T11:04:58;6.70;99.90
52965;DHT22;42923;53.220;6.528;2024-02-26T11:07:26;7.80;99.90
52965;DHT22;42923;53.220;6.528;2024-02-26T11:09:53;6.70;99.90
52965;DHT22;42923;53.220;6.528;2024-02-26T11:12:20;6.70;99.90
52965;DHT22;42923;53.220;6.528;2024-02-26T11:14:46;6.70;99.90
52965;DHT22;42923;53.220;6.528;2024-02-26T11:17:13;6.70;99.90
52965;DHT22;42923;53.220;6.528;2024-02-26T11:19:41;6.70;99.90
52965;DHT22;42923;53.220;6.528;2024-02-26T11:22:08;6.60;99.90
52965;DHT22;42923;53.220;6.528;2024-02-26T11:24:34;6.60;99.90
52965;DHT22;42923;53.220;6.528;2024-02-26T11:27:02;6.70;99.90
52965;DHT22;42923;53.220;6.528;2024-02-26T11:29:42;6.70;99.90
52965;DHT22;42923;53.220;6.528;2024-02-26T11:32:09;6.70;99.90
52965;DHT22;42923;53.220;6.528;2024-02-26T11:34:35;6.80;99.90
52965;DHT22;42923;53.220;6.528;2024-02-26T11:37:14;6.80;99.90
52965;DHT22;42923;53.220;6.528;2024-02-26T11:39:40;6.70;99.90
52965;DHT22;42923;53.220;6.528;2024-02-26T11:42:08;6.70;99.90
52965;DHT22;42923;53.220;6.528;2024-02-26T11:44:35;6.70;99.90
52965;DHT22;42923;53.220;6.528;2024-02-26T11:47:21;6.80;99.90
52965;DHT22;42923;53.220;6.528;2024-02-26T11:49:47;6.80;99.90
52965;DHT22;42923;53.220;6.528;2024-02-26T11:52:14;6.90;99.90
52965;DHT22;42923;53.220;6.528;2024-02-26T11:54:50;7.00;99.90
52965;DHT22;42923;53.220;6.528;2024-02-26T11:57:37;6.90;99.90
52965;DHT22;42923;53.220;6.528;2024-02-26T12:02:43;7.90;99.90
52965;DHT22;42923;53.220;6.528;2024-02-26T12:07:48;7.00;99.90
52965;DHT22;42923;53.220;6.528;2024-02-26T12:12:42;7.10;99.90
52965;DHT22;42923;53.220;6.528;2024-02-26T12:15:08;7.00;99.90
52965;DHT22;42923;53.220;6.528;2024-02-26T12:17:34;7.90;99.90
52965;DHT22;42923;53.220;6.528;2024-02-26T12:20:11;6.80;99.90
52965;DHT22;42923;53.220;6.528;2024-02-26T12:22:41;6.80;99.90
52965;DHT22;42923;53.220;6.528;2024-02-26T12:25:10;6.80;99.90
52965;DHT22;42923;53.220;6.528;2024-02-26T12:27:35;6.80;99.90
52965;DHT22;42923;53.220;6.528;2024-02-26T12:30:03;6.80;99.90
52965;DHT22;42923;53.220;6.528;2024-02-26T12:32:29;6.80;99.90
52965;DHT22;42923;53.220;6.528;2024-02-26T12:34:54;6.70;99.90
52965;DHT22;42923;53.220;6.528;2024-02-26T12:37:20;6.70;99.90
52965;DHT22;42923;53.220;6.528;2024-02-26T12:39:46;6.70;99.90
52965;DHT22;42923;53.220;6.528;2024-02-26T12:42:12;6.70;99.90
52965;DHT22;42923;53.220;6.528;2024-02-26T12:44:38;6.70;99.90
52965;DHT22;42923;53.220;6.528;2024-02-26T12:47:04;7.00;99.90
52965;DHT22;42923;53.220;6.528;2024-02-26T12:49:30;7.60;99.90
52965;DHT22;42923;53.220;6.528;2024-02-26T12:51:56;6.60;99.90
52965;DHT22;42923;53.220;6.528;2024-02-26T12:54:30;6.60;99.90
52965;DHT22;42923;53.220;6.528;2024-02-26T12:56:57;6.60;99.90
52965;DHT22;42923;53.220;6.528;2024-02-26T12:59:24;6.60;99.90
52965;DHT22;42923;53.220;6.528;2024-02-26T13:01:50;6.60;99.90
52965;DHT22;42923;53.220;6.528;2024-02-26T13:04:16;6.70;99.90
52965;DHT22;42923;53.220;6.528;2024-02-26T13:06:43;6.70;99.90
52965;DHT22;42923;53.220;6.528;2024-02-26T13:09:13;6.80;99.90
52965;DHT22;42923;53.220;6.528;2024-02-26T13:11:40;6.80;99.90
52965;DHT22;42923;53.220;6.528;2024-02-26T13:14:05;6.80;99.90
52965;DHT22;42923;53.220;6.528;2024-02-26T13:16:32;6.80;99.90
52965;DHT22;42923;53.220;6.528;2024-02-26T13:19:11;6.80;99.90
52965;DHT22;42923;53.220;6.528;2024-02-26T13:21:37;6.80;99.90
52965;DHT22;42923;53.220;6.528;2024-02-26T13:24:02;6.80;99.90
52965;DHT22;42923;53.220;6.528;2024-02-26T13:26:28;6.80;99.90
52965;DHT22;42923;53.220;6.528;2024-02-26T13:29:01;6.80;99.90
52965;DHT22;42923;53.220;6.528;2024-02-26T13:31:28;6.80;99.90
52965;DHT22;42923;53.220;6.528;2024-02-26T13:33:54;6.70;99.90
52965;DHT22;42923;53.220;6.528;2024-02-26T13:36:22;6.70;99.90
52965;DHT22;42923;53.220;6.528;2024-02-26T13:38:52;6.60;99.90
52965;DHT22;42923;53.220;6.528;2024-02-26T13:41:18;6.60;99.90
52965;DHT22;42923;53.220;6.528;2024-02-26T13:43:44;6.60;99.90
52965;DHT22;42923;53.220;6.528;2024-02-26T13:46:10;6.60;99.90
52965;DHT22;42923;53.220;6.528;2024-02-26T13:48:38;7.20;99.90
52965;DHT22;42923;53.220;6.528;2024-02-26T13:51:04;7.10;99.90
52965;DHT22;42923;53.220;6.528;2024-02-26T13:53:29;6.40;99.90
52965;DHT22;42923;53.220;6.528;2024-02-26T13:55:55;6.40;99.90
52965;DHT22;42923;53.220;6.528;2024-02-26T13:58:22;6.40;99.90
52965;DHT22;42923;53.220;6.528;2024-02-26T14:00:49;6.40;99.90
52965;DHT22;42923;53.220;6.528;2024-02-26T14:03:15;6.40;99.90
52965;DHT22;42923;53.220;6.528;2024-02-26T14:05:41;6.60;99.90
52965;DHT22;42923;53.220;6.528;2024-02-26T14:08:07;6.30;99.90
52965;DHT22;42923;53.220;6.528;2024-02-26T14:10:33;6.30;99.90
52965;DHT22;42923;53.220;6.528;2024-02-26T14:12:59;6.30;99.90
52965;DHT22;42923;53.220;6.528;2024-02-26T14:15:25;6.20;99.90
52965;DHT22;42923;53.220;6.528;2024-02-26T14:17:52;6.30;99.90
52965;DHT22;42923;53.220;6.528;2024-02-26T14:20:23;6.30;99.90
52965;DHT22;42923;53.220;6.528;2024-02-26T14:22:52;6.30;99.90
52965;DHT22;42923;53.220;6.528;2024-02-26T14:25:19;6.30;99.90
52965;DHT22;42923;53.220;6.528;2024-02-26T14:27:46;6.20;99.90
52965;DHT22;42923;53.220;6.528;2024-02-26T14:30:12;6.20;99.90
52965;DHT22;42923;53.220;6.528;2024-02-26T14:32:38;6.20;99.90
52965;DHT22;42923;53.220;6.528;2024-02-26T14:35:08;6.10;99.90
52965;DHT22;42923;53.220;6.528;2024-02-26T14:37:35;6.10;99.90
52965;DHT22;42923;53.220;6.528;2024-02-26T14:40:01;6.10;99.90
52965;DHT22;42923;53.220;6.528;2024-02-26T14:42:29;6.10;99.90
52965;DHT22;42923;53.220;6.528;2024-02-26T14:44:55;6.20;99.90
52965;DHT22;42923;53.220;6.528;2024-02-26T14:47:20;6.20;99.90
52965;DHT22;42923;53.220;6.528;2024-02-26T14:49:46;6.10;99.90
52965;DHT22;42923;53.220;6.528;2024-02-26T14:52:14;6.20;99.90
52965;DHT22;42923;53.220;6.528;2024-02-26T14:54:40;5.90;99.90
52965;DHT22;42923;53.220;6.528;2024-02-26T14:57:06;6.20;99.90
52965;DHT22;42923;53.220;6.528;2024-02-26T14:59:32;6.20;99.90
52965;DHT22;42923;53.220;6.528;2024-02-26T15:01:59;6.10;99.90
52965;DHT22;42923;53.220;6.528;2024-02-26T15:04:26;6.10;99.90
52965;DHT22;42923;53.220;6.528;2024-02-26T15:06:51;6.70;99.90
52965;DHT22;42923;53.220;6.528;2024-02-26T15:09:17;6.10;99.90
52965;DHT22;42923;53.220;6.528;2024-02-26T15:11:43;6.20;99.90
52965;DHT22;42923;53.220;6.528;2024-02-26T15:14:10;6.10;99.90
52965;DHT22;42923;53.220;6.528;2024-02-26T15:16:36;6.20;99.90
52965;DHT22;42923;53.220;6.528;2024-02-26T15:19:02;6.10;99.90
52965;DHT22;42923;53.220;6.528;2024-02-26T15:21:32;6.10;99.90
52965;DHT22;42923;53.220;6.528;2024-02-26T15:23:58;6.10;99.90
52965;DHT22;42923;53.220;6.528;2024-02-26T15:26:24;6.10;99.90
52965;DHT22;42923;53.220;6.528;2024-02-26T15:28:52;6.10;99.90
52965;DHT22;42923;53.220;6.528;2024-02-26T15:31:19;7.50;99.90
52965;DHT22;42923;53.220;6.528;2024-02-26T15:33:45;6.10;99.90
52965;DHT22;42923;53.220;6.528;2024-02-26T15:36:10;6.10;99.90
52965;DHT22;42923;53.220;6.528;2024-02-26T15:38:37;6.10;99.90
52965;DHT22;42923;53.220;6.528;2024-02-26T15:41:13;6.10;99.90
52965;DHT22;42923;53.220;6.528;2024-02-26T15:43:39;6.10;99.90
52965;DHT22;42923;53.220;6.528;2024-02-26T15:46:05;7.50;99.90
52965;DHT22;42923;53.220;6.528;2024-02-26T15:48:32;6.10;99.90